sensor_id;sensor_type;location;lat;lon;timestamp;P1;durP1;ratioP1;P2;durP2;ratioP2
13303;SDS011;6720;51.958;4.540;2023-08-08T00:02:05;16.70;;;4.77;;
13303;SDS011;6720;51.958;4.540;2023-08-08T00:04:31;12.97;;;4.60;;
13303;SDS011;6720;51.958;4.540;2023-08-08T00:06:56;10.10;;;4.60;;
13303;SDS011;6720;51.958;4.540;2023-08-08T00:09:22;9.23;;;4.20;;
13303;SDS011;6720;51.958;4.540;2023-08-08T00:11:47;14.60;;;4.63;;
13303;SDS011;6720;51.958;4.540;2023-08-08T00:14:13;12.03;;;4.30;;
13303;SDS011;6720;51.958;4.540;2023-08-08T00:16:39;16.33;;;5.10;;
13303;SDS011;6720;51.958;4.540;2023-08-08T00:19:05;14.43;;;4.30;;
13303;SDS011;6720;51.958;4.540;2023-08-08T00:21:30;10.80;;;4.30;;
13303;SDS011;6720;51.958;4.540;2023-08-08T00:23:56;17.83;;;4.87;;
13303;SDS011;6720;51.958;4.540;2023-08-08T00:26:21;16.67;;;4.50;;
13303;SDS011;6720;51.958;4.540;2023-08-08T00:28:47;15.93;;;5.20;;
13303;SDS011;6720;51.958;4.540;2023-08-08T00:31:12;13.60;;;4.17;;
13303;SDS011;6720;51.958;4.540;2023-08-08T00:33:37;9.83;;;4.20;;
13303;SDS011;6720;51.958;4.540;2023-08-08T00:36:03;11.33;;;4.20;;
13303;SDS011;6720;51.958;4.540;2023-08-08T00:38:29;12.23;;;4.93;;
13303;SDS011;6720;51.958;4.540;2023-08-08T00:40:54;12.43;;;4.00;;
13303;SDS011;6720;51.958;4.540;2023-08-08T00:43:19;11.80;;;4.23;;
13303;SDS011;6720;51.958;4.540;2023-08-08T00:45:45;9.67;;;3.73;;
13303;SDS011;6720;51.958;4.540;2023-08-08T00:48:11;12.13;;;4.00;;
13303;SDS011;6720;51.958;4.540;2023-08-08T00:50:36;9.67;;;4.07;;
13303;SDS011;6720;51.958;4.540;2023-08-08T00:53:03;11.70;;;4.77;;
13303;SDS011;6720;51.958;4.540;2023-08-08T00:55:29;10.43;;;4.43;;
13303;SDS011;6720;51.958;4.540;2023-08-08T00:57:56;8.80;;;3.90;;
13303;SDS011;6720;51.958;4.540;2023-08-08T01:00:21;11.17;;;3.87;;
13303;SDS011;6720;51.958;4.540;2023-08-08T01:02:47;7.47;;;3.47;;
13303;SDS011;6720;51.958;4.540;2023-08-08T01:05:12;9.20;;;3.97;;
13303;SDS011;6720;51.958;4.540;2023-08-08T01:10:11;10.30;;;4.67;;
13303;SDS011;6720;51.958;4.540;2023-08-08T01:13:02;10.43;;;4.80;;
13303;SDS011;6720;51.958;4.540;2023-08-08T01:15:46;8.17;;;3.83;;
13303;SDS011;6720;51.958;4.540;2023-08-08T01:18:13;7.87;;;4.70;;
13303;SDS011;6720;51.958;4.540;2023-08-08T01:20:40;7.83;;;4.40;;
13303;SDS011;6720;51.958;4.540;2023-08-08T01:26:04;8.97;;;4.10;;
13303;SDS011;6720;51.958;4.540;2023-08-08T01:28:30;8.17;;;5.00;;
13303;SDS011;6720;51.958;4.540;2023-08-08T01:30:56;6.43;;;4.30;;
13303;SDS011;6720;51.958;4.540;2023-08-08T01:33:21;6.73;;;4.10;;
13303;SDS011;6720;51.958;4.540;2023-08-08T01:35:48;5.73;;;3.40;;
13303;SDS011;6720;51.958;4.540;2023-08-08T01:38:31;6.37;;;4.70;;
13303;SDS011;6720;51.958;4.540;2023-08-08T01:41:01;8.23;;;4.27;;
13303;SDS011;6720;51.958;4.540;2023-08-08T01:43:29;7.90;;;3.70;;
13303;SDS011;6720;51.958;4.540;2023-08-08T01:45:56;4.37;;;3.33;;
13303;SDS011;6720;51.958;4.540;2023-08-08T01:48:22;5.20;;;3.70;;
13303;SDS011;6720;51.958;4.540;2023-08-08T01:50:47;7.17;;;4.70;;
13303;SDS011;6720;51.958;4.540;2023-08-08T01:53:13;5.87;;;4.10;;
13303;SDS011;6720;51.958;4.540;2023-08-08T01:55:38;8.07;;;4.63;;
13303;SDS011;6720;51.958;4.540;2023-08-08T01:58:04;7.83;;;4.90;;
13303;SDS011;6720;51.958;4.540;2023-08-08T02:00:29;6.37;;;3.80;;
13303;SDS011;6720;51.958;4.540;2023-08-08T02:02:54;5.97;;;4.40;;
13303;SDS011;6720;51.958;4.540;2023-08-08T02:05:20;8.50;;;4.60;;
13303;SDS011;6720;51.958;4.540;2023-08-08T02:07:46;5.13;;;3.17;;
13303;SDS011;6720;51.958;4.540;2023-08-08T02:10:11;4.07;;;3.47;;
13303;SDS011;6720;51.958;4.540;2023-08-08T02:12:36;8.67;;;3.53;;
13303;SDS011;6720;51.958;4.540;2023-08-08T02:15:02;8.13;;;4.10;;
13303;SDS011;6720;51.958;4.540;2023-08-08T02:17:29;5.27;;;3.93;;
13303;SDS011;6720;51.958;4.540;2023-08-08T02:19:54;7.30;;;3.27;;
13303;SDS011;6720;51.958;4.540;2023-08-08T02:22:20;6.80;;;3.47;;
13303;SDS011;6720;51.958;4.540;2023-08-08T02:24:45;3.80;;;2.97;;
13303;SDS011;6720;51.958;4.540;2023-08-08T02:27:11;6.20;;;3.40;;
13303;SDS011;6720;51.958;4.540;2023-08-08T02:29:37;6.10;;;3.47;;
13303;SDS011;6720;51.958;4.540;2023-08-08T02:32:02;5.87;;;4.10;;
13303;SDS011;6720;51.958;4.540;2023-08-08T02:34:28;4.87;;;3.23;;
13303;SDS011;6720;51.958;4.540;2023-08-08T02:36:53;4.77;;;2.60;;
13303;SDS011;6720;51.958;4.540;2023-08-08T02:39:19;6.47;;;2.93;;
13303;SDS011;6720;51.958;4.540;2023-08-08T02:41:44;4.83;;;2.77;;
13303;SDS011;6720;51.958;4.540;2023-08-08T02:44:10;6.93;;;2.77;;
13303;SDS011;6720;51.958;4.540;2023-08-08T02:46:35;6.30;;;2.87;;
13303;SDS011;6720;51.958;4.540;2023-08-08T02:49:02;4.43;;;2.43;;
13303;SDS011;6720;51.958;4.540;2023-08-08T02:51:29;6.57;;;3.13;;
13303;SDS011;6720;51.958;4.540;2023-08-08T02:53:54;4.27;;;2.80;;
13303;SDS011;6720;51.958;4.540;2023-08-08T02:56:21;3.53;;;2.40;;
13303;SDS011;6720;51.958;4.540;2023-08-08T02:58:46;4.40;;;2.37;;
13303;SDS011;6720;51.958;4.540;2023-08-08T03:01:12;4.87;;;2.73;;
13303;SDS011;6720;51.958;4.540;2023-08-08T03:03:41;2.90;;;2.50;;
13303;SDS011;6720;51.958;4.540;2023-08-08T03:06:06;3.50;;;2.50;;
13303;SDS011;6720;51.958;4.540;2023-08-08T03:08:32;5.00;;;2.67;;
13303;SDS011;6720;51.958;4.540;2023-08-08T03:10:58;4.17;;;2.43;;
13303;SDS011;6720;51.958;4.540;2023-08-08T03:13:23;3.30;;;2.10;;
13303;SDS011;6720;51.958;4.540;2023-08-08T03:15:48;2.97;;;2.20;;
13303;SDS011;6720;51.958;4.540;2023-08-08T03:18:14;5.63;;;2.40;;
13303;SDS011;6720;51.958;4.540;2023-08-08T03:20:39;2.40;;;2.07;;
13303;SDS011;6720;51.958;4.540;2023-08-08T03:23:05;3.83;;;2.07;;
13303;SDS011;6720;51.958;4.540;2023-08-08T03:25:30;2.80;;;1.90;;
13303;SDS011;6720;51.958;4.540;2023-08-08T03:27:56;4.10;;;2.23;;
13303;SDS011;6720;51.958;4.540;2023-08-08T03:30:21;2.93;;;2.47;;
13303;SDS011;6720;51.958;4.540;2023-08-08T03:32:47;3.33;;;2.00;;
13303;SDS011;6720;51.958;4.540;2023-08-08T03:35:12;4.70;;;2.00;;
13303;SDS011;6720;51.958;4.540;2023-08-08T03:37:37;3.23;;;1.83;;
13303;SDS011;6720;51.958;4.540;2023-08-08T03:40:03;5.83;;;2.33;;
13303;SDS011;6720;51.958;4.540;2023-08-08T03:42:29;6.37;;;2.30;;
13303;SDS011;6720;51.958;4.540;2023-08-08T03:44:54;3.63;;;2.07;;
13303;SDS011;6720;51.958;4.540;2023-08-08T03:47:20;4.37;;;2.20;;
13303;SDS011;6720;51.958;4.540;2023-08-08T03:49:47;5.63;;;2.40;;
13303;SDS011;6720;51.958;4.540;2023-08-08T03:52:12;5.87;;;2.27;;
13303;SDS011;6720;51.958;4.540;2023-08-08T03:54:38;4.13;;;2.40;;
13303;SDS011;6720;51.958;4.540;2023-08-08T03:57:03;3.50;;;2.20;;
13303;SDS011;6720;51.958;4.540;2023-08-08T03:59:29;4.33;;;2.20;;
13303;SDS011;6720;51.958;4.540;2023-08-08T04:01:54;4.33;;;2.27;;
13303;SDS011;6720;51.958;4.540;2023-08-08T04:04:20;4.60;;;2.00;;
13303;SDS011;6720;51.958;4.540;2023-08-08T04:06:45;7.57;;;2.30;;
13303;SDS011;6720;51.958;4.540;2023-08-08T04:09:10;2.17;;;1.97;;
13303;SDS011;6720;51.958;4.540;2023-08-08T04:11:36;6.53;;;2.57;;
13303;SDS011;6720;51.958;4.540;2023-08-08T04:14:02;4.67;;;2.20;;
13303;SDS011;6720;51.958;4.540;2023-08-08T04:16:28;6.60;;;2.43;;
13303;SDS011;6720;51.958;4.540;2023-08-08T04:18:53;5.43;;;2.53;;
13303;SDS011;6720;51.958;4.540;2023-08-08T04:21:19;4.40;;;2.30;;
13303;SDS011;6720;51.958;4.540;2023-08-08T04:23:44;5.13;;;2.47;;
13303;SDS011;6720;51.958;4.540;2023-08-08T04:26:09;4.43;;;2.27;;
13303;SDS011;6720;51.958;4.540;2023-08-08T04:28:36;4.90;;;2.47;;
13303;SDS011;6720;51.958;4.540;2023-08-08T04:31:03;3.53;;;2.50;;
13303;SDS011;6720;51.958;4.540;2023-08-08T04:33:29;4.57;;;2.50;;
13303;SDS011;6720;51.958;4.540;2023-08-08T04:35:54;3.93;;;2.17;;
13303;SDS011;6720;51.958;4.540;2023-08-08T04:38:20;4.37;;;2.37;;
13303;SDS011;6720;51.958;4.540;2023-08-08T04:40:45;5.43;;;2.60;;
13303;SDS011;6720;51.958;4.540;2023-08-08T04:43:11;5.00;;;1.97;;
13303;SDS011;6720;51.958;4.540;2023-08-08T04:45:36;4.73;;;2.10;;
13303;SDS011;6720;51.958;4.540;2023-08-08T04:48:01;3.87;;;2.10;;
13303;SDS011;6720;51.958;4.540;2023-08-08T04:50:27;5.53;;;2.10;;
13303;SDS011;6720;51.958;4.540;2023-08-08T04:52:53;3.97;;;2.33;;
13303;SDS011;6720;51.958;4.540;2023-08-08T04:55:18;5.37;;;2.70;;
13303;SDS011;6720;51.958;4.540;2023-08-08T04:57:44;4.07;;;2.13;;
13303;SDS011;6720;51.958;4.540;2023-08-08T05:00:10;4.23;;;2.13;;
13303;SDS011;6720;51.958;4.540;2023-08-08T05:02:35;5.30;;;2.20;;
13303;SDS011;6720;51.958;4.540;2023-08-08T05:05:01;5.00;;;2.10;;
13303;SDS011;6720;51.958;4.540;2023-08-08T05:07:27;4.30;;;2.60;;
13303;SDS011;6720;51.958;4.540;2023-08-08T05:09:52;6.13;;;2.20;;
13303;SDS011;6720;51.958;4.540;2023-08-08T05:12:18;4.70;;;2.33;;
13303;SDS011;6720;51.958;4.540;2023-08-08T05:14:43;7.03;;;2.17;;
13303;SDS011;6720;51.958;4.540;2023-08-08T05:17:09;5.70;;;2.30;;
13303;SDS011;6720;51.958;4.540;2023-08-08T05:19:34;7.00;;;2.50;;
13303;SDS011;6720;51.958;4.540;2023-08-08T05:21:59;5.53;;;2.13;;
13303;SDS011;6720;51.958;4.540;2023-08-08T05:24:25;5.63;;;2.20;;
13303;SDS011;6720;51.958;4.540;2023-08-08T05:26:51;5.70;;;2.30;;
13303;SDS011;6720;51.958;4.540;2023-08-08T05:29:18;5.07;;;2.13;;
13303;SDS011;6720;51.958;4.540;2023-08-08T05:31:44;4.17;;;2.27;;
13303;SDS011;6720;51.958;4.540;2023-08-08T05:34:09;4.70;;;2.03;;
13303;SDS011;6720;51.958;4.540;2023-08-08T05:36:35;4.80;;;2.20;;
13303;SDS011;6720;51.958;4.540;2023-08-08T05:39:00;4.03;;;2.10;;
13303;SDS011;6720;51.958;4.540;2023-08-08T05:41:26;4.50;;;2.20;;
13303;SDS011;6720;51.958;4.540;2023-08-08T05:43:51;3.50;;;1.80;;
13303;SDS011;6720;51.958;4.540;2023-08-08T05:46:16;8.20;;;2.60;;
13303;SDS011;6720;51.958;4.540;2023-08-08T05:48:42;5.23;;;2.30;;
13303;SDS011;6720;51.958;4.540;2023-08-08T05:51:07;3.70;;;1.87;;
13303;SDS011;6720;51.958;4.540;2023-08-08T05:53:33;4.53;;;2.27;;
13303;SDS011;6720;51.958;4.540;2023-08-08T05:55:58;3.73;;;2.20;;
13303;SDS011;6720;51.958;4.540;2023-08-08T05:58:23;5.67;;;2.27;;
13303;SDS011;6720;51.958;4.540;2023-08-08T06:00:49;3.73;;;2.00;;
13303;SDS011;6720;51.958;4.540;2023-08-08T06:03:15;5.57;;;1.80;;
13303;SDS011;6720;51.958;4.540;2023-08-08T06:05:41;3.33;;;1.70;;
13303;SDS011;6720;51.958;4.540;2023-08-08T06:08:06;4.27;;;1.70;;
13303;SDS011;6720;51.958;4.540;2023-08-08T06:10:37;4.23;;;1.93;;
13303;SDS011;6720;51.958;4.540;2023-08-08T06:13:02;6.87;;;2.10;;
13303;SDS011;6720;51.958;4.540;2023-08-08T06:15:28;3.47;;;1.83;;
13303;SDS011;6720;51.958;4.540;2023-08-08T06:17:54;5.23;;;1.80;;
13303;SDS011;6720;51.958;4.540;2023-08-08T06:20:19;3.80;;;1.83;;
13303;SDS011;6720;51.958;4.540;2023-08-08T06:22:47;2.50;;;1.80;;
13303;SDS011;6720;51.958;4.540;2023-08-08T06:25:15;2.37;;;1.70;;
13303;SDS011;6720;51.958;4.540;2023-08-08T06:27:41;3.70;;;1.77;;
13303;SDS011;6720;51.958;4.540;2023-08-08T06:30:06;4.17;;;2.30;;
13303;SDS011;6720;51.958;4.540;2023-08-08T06:32:33;2.63;;;2.00;;
13303;SDS011;6720;51.958;4.540;2023-08-08T06:34:59;5.27;;;1.93;;
13303;SDS011;6720;51.958;4.540;2023-08-08T06:37:24;3.17;;;1.80;;
13303;SDS011;6720;51.958;4.540;2023-08-08T06:39:50;5.70;;;2.20;;
13303;SDS011;6720;51.958;4.540;2023-08-08T06:42:15;3.63;;;1.77;;
13303;SDS011;6720;51.958;4.540;2023-08-08T06:44:41;2.67;;;1.90;;
13303;SDS011;6720;51.958;4.540;2023-08-08T06:47:08;4.87;;;1.60;;
13303;SDS011;6720;51.958;4.540;2023-08-08T06:49:34;3.27;;;1.57;;
13303;SDS011;6720;51.958;4.540;2023-08-08T06:52:00;2.83;;;1.40;;
13303;SDS011;6720;51.958;4.540;2023-08-08T06:54:25;5.93;;;2.63;;
13303;SDS011;6720;51.958;4.540;2023-08-08T06:56:53;3.63;;;1.60;;
13303;SDS011;6720;51.958;4.540;2023-08-08T06:59:19;3.20;;;1.50;;
13303;SDS011;6720;51.958;4.540;2023-08-08T07:01:44;3.07;;;1.43;;
13303;SDS011;6720;51.958;4.540;2023-08-08T07:04:10;5.10;;;1.80;;
13303;SDS011;6720;51.958;4.540;2023-08-08T07:06:35;1.93;;;1.80;;
13303;SDS011;6720;51.958;4.540;2023-08-08T07:09:01;2.80;;;1.50;;
13303;SDS011;6720;51.958;4.540;2023-08-08T07:11:27;2.47;;;1.80;;
13303;SDS011;6720;51.958;4.540;2023-08-08T07:13:53;4.57;;;1.90;;
13303;SDS011;6720;51.958;4.540;2023-08-08T07:16:18;2.43;;;1.50;;
13303;SDS011;6720;51.958;4.540;2023-08-08T07:18:44;3.17;;;1.60;;
13303;SDS011;6720;51.958;4.540;2023-08-08T07:21:09;3.03;;;1.80;;
13303;SDS011;6720;51.958;4.540;2023-08-08T07:23:35;2.73;;;1.53;;
13303;SDS011;6720;51.958;4.540;2023-08-08T07:26:00;20.50;;;17.37;;
13303;SDS011;6720;51.958;4.540;2023-08-08T07:28:25;3.87;;;2.83;;
13303;SDS011;6720;51.958;4.540;2023-08-08T07:30:51;7.47;;;4.53;;
13303;SDS011;6720;51.958;4.540;2023-08-08T07:33:17;2.53;;;1.60;;
13303;SDS011;6720;51.958;4.540;2023-08-08T07:35:43;1.70;;;1.50;;
13303;SDS011;6720;51.958;4.540;2023-08-08T07:38:10;2.87;;;1.60;;
13303;SDS011;6720;51.958;4.540;2023-08-08T07:40:36;4.07;;;2.00;;
13303;SDS011;6720;51.958;4.540;2023-08-08T07:43:01;2.20;;;1.50;;
13303;SDS011;6720;51.958;4.540;2023-08-08T07:45:27;4.53;;;1.90;;
13303;SDS011;6720;51.958;4.540;2023-08-08T07:47:53;4.63;;;1.70;;
13303;SDS011;6720;51.958;4.540;2023-08-08T07:50:20;3.53;;;1.73;;
13303;SDS011;6720;51.958;4.540;2023-08-08T07:52:47;4.90;;;1.90;;
13303;SDS011;6720;51.958;4.540;2023-08-08T07:55:12;1.83;;;1.50;;
13303;SDS011;6720;51.958;4.540;2023-08-08T07:57:38;2.90;;;1.70;;
13303;SDS011;6720;51.958;4.540;2023-08-08T08:00:04;1.90;;;1.67;;
13303;SDS011;6720;51.958;4.540;2023-08-08T08:02:41;2.17;;;1.50;;
13303;SDS011;6720;51.958;4.540;2023-08-08T08:05:08;2.43;;;1.50;;
13303;SDS011;6720;51.958;4.540;2023-08-08T08:07:35;3.20;;;1.77;;
13303;SDS011;6720;51.958;4.540;2023-08-08T08:10:01;1.40;;;1.30;;
13303;SDS011;6720;51.958;4.540;2023-08-08T08:12:31;2.27;;;1.90;;
13303;SDS011;6720;51.958;4.540;2023-08-08T08:14:56;4.20;;;1.57;;
13303;SDS011;6720;51.958;4.540;2023-08-08T08:17:22;2.87;;;1.50;;
13303;SDS011;6720;51.958;4.540;2023-08-08T08:19:48;4.07;;;1.77;;
13303;SDS011;6720;51.958;4.540;2023-08-08T08:22:14;2.43;;;1.60;;
13303;SDS011;6720;51.958;4.540;2023-08-08T08:24:39;3.93;;;1.90;;
13303;SDS011;6720;51.958;4.540;2023-08-08T08:27:05;3.27;;;2.00;;
13303;SDS011;6720;51.958;4.540;2023-08-08T08:29:30;1.80;;;1.70;;
13303;SDS011;6720;51.958;4.540;2023-08-08T08:31:56;3.47;;;1.90;;
13303;SDS011;6720;51.958;4.540;2023-08-08T08:34:22;2.00;;;1.70;;
13303;SDS011;6720;51.958;4.540;2023-08-08T08:36:47;3.63;;;1.90;;
13303;SDS011;6720;51.958;4.540;2023-08-08T08:39:12;2.87;;;1.60;;
13303;SDS011;6720;51.958;4.540;2023-08-08T08:41:38;4.13;;;2.20;;
13303;SDS011;6720;51.958;4.540;2023-08-08T08:44:04;2.67;;;1.67;;
13303;SDS011;6720;51.958;4.540;2023-08-08T08:46:31;1.83;;;1.50;;
13303;SDS011;6720;51.958;4.540;2023-08-08T08:48:59;2.37;;;1.70;;
13303;SDS011;6720;51.958;4.540;2023-08-08T08:51:25;2.23;;;1.60;;
13303;SDS011;6720;51.958;4.540;2023-08-08T08:53:51;2.13;;;1.93;;
13303;SDS011;6720;51.958;4.540;2023-08-08T08:56:16;2.90;;;1.80;;
13303;SDS011;6720;51.958;4.540;2023-08-08T08:58:43;5.83;;;1.90;;
13303;SDS011;6720;51.958;4.540;2023-08-08T09:01:11;4.83;;;1.80;;
13303;SDS011;6720;51.958;4.540;2023-08-08T09:03:38;2.90;;;1.60;;
13303;SDS011;6720;51.958;4.540;2023-08-08T09:06:04;3.40;;;1.60;;
13303;SDS011;6720;51.958;4.540;2023-08-08T09:08:30;2.53;;;1.60;;
13303;SDS011;6720;51.958;4.540;2023-08-08T09:10:56;1.67;;;1.57;;
13303;SDS011;6720;51.958;4.540;2023-08-08T09:13:23;2.67;;;1.80;;
13303;SDS011;6720;51.958;4.540;2023-08-08T09:15:51;3.33;;;2.10;;
13303;SDS011;6720;51.958;4.540;2023-08-08T09:18:17;3.40;;;1.80;;
13303;SDS011;6720;51.958;4.540;2023-08-08T09:20:48;2.87;;;1.50;;
13303;SDS011;6720;51.958;4.540;2023-08-08T09:23:14;1.53;;;1.43;;
13303;SDS011;6720;51.958;4.540;2023-08-08T09:25:40;3.57;;;1.47;;
13303;SDS011;6720;51.958;4.540;2023-08-08T09:28:05;2.40;;;1.70;;
13303;SDS011;6720;51.958;4.540;2023-08-08T09:30:31;3.43;;;1.80;;
13303;SDS011;6720;51.958;4.540;2023-08-08T09:32:59;3.53;;;1.80;;
13303;SDS011;6720;51.958;4.540;2023-08-08T09:35:26;3.67;;;1.63;;
13303;SDS011;6720;51.958;4.540;2023-08-08T09:37:57;2.50;;;1.90;;
13303;SDS011;6720;51.958;4.540;2023-08-08T09:40:25;7.77;;;4.20;;
13303;SDS011;6720;51.958;4.540;2023-08-08T09:42:51;4.47;;;2.10;;
13303;SDS011;6720;51.958;4.540;2023-08-08T09:45:18;3.57;;;1.70;;
13303;SDS011;6720;51.958;4.540;2023-08-08T09:47:43;3.33;;;2.10;;
13303;SDS011;6720;51.958;4.540;2023-08-08T09:50:09;10.47;;;9.33;;
13303;SDS011;6720;51.958;4.540;2023-08-08T09:52:36;5.73;;;3.80;;
13303;SDS011;6720;51.958;4.540;2023-08-08T09:55:05;7.20;;;5.33;;
13303;SDS011;6720;51.958;4.540;2023-08-08T09:57:31;2.73;;;1.80;;
13303;SDS011;6720;51.958;4.540;2023-08-08T09:59:58;3.43;;;2.03;;
13303;SDS011;6720;51.958;4.540;2023-08-08T10:02:23;6.77;;;3.20;;
13303;SDS011;6720;51.958;4.540;2023-08-08T10:04:49;3.13;;;1.90;;
13303;SDS011;6720;51.958;4.540;2023-08-08T10:07:15;3.17;;;2.40;;
13303;SDS011;6720;51.958;4.540;2023-08-08T10:09:41;3.53;;;2.10;;
13303;SDS011;6720;51.958;4.540;2023-08-08T10:12:07;3.73;;;1.90;;
13303;SDS011;6720;51.958;4.540;2023-08-08T10:14:37;6.07;;;3.87;;
13303;SDS011;6720;51.958;4.540;2023-08-08T10:17:05;3.07;;;2.10;;
13303;SDS011;6720;51.958;4.540;2023-08-08T10:19:31;4.63;;;2.57;;
13303;SDS011;6720;51.958;4.540;2023-08-08T10:21:58;4.00;;;1.70;;
13303;SDS011;6720;51.958;4.540;2023-08-08T10:24:32;2.60;;;2.17;;
13303;SDS011;6720;51.958;4.540;2023-08-08T10:27:00;2.60;;;1.93;;
13303;SDS011;6720;51.958;4.540;2023-08-08T10:29:27;3.20;;;1.77;;
13303;SDS011;6720;51.958;4.540;2023-08-08T10:31:59;4.80;;;2.13;;
13303;SDS011;6720;51.958;4.540;2023-08-08T10:34:38;2.87;;;2.30;;
13303;SDS011;6720;51.958;4.540;2023-08-08T10:37:08;5.90;;;4.37;;
13303;SDS011;6720;51.958;4.540;2023-08-08T10:39:37;2.43;;;1.57;;
13303;SDS011;6720;51.958;4.540;2023-08-08T10:42:03;2.63;;;1.83;;
13303;SDS011;6720;51.958;4.540;2023-08-08T10:44:30;2.13;;;1.60;;
13303;SDS011;6720;51.958;4.540;2023-08-08T10:46:56;2.43;;;1.73;;
13303;SDS011;6720;51.958;4.540;2023-08-08T10:49:22;3.13;;;1.80;;
13303;SDS011;6720;51.958;4.540;2023-08-08T10:51:48;2.70;;;1.67;;
13303;SDS011;6720;51.958;4.540;2023-08-08T10:54:24;2.17;;;1.70;;
13303;SDS011;6720;51.958;4.540;2023-08-08T10:56:53;2.17;;;1.90;;
13303;SDS011;6720;51.958;4.540;2023-08-08T10:59:22;3.67;;;1.90;;
13303;SDS011;6720;51.958;4.540;2023-08-08T11:01:49;2.63;;;1.90;;
13303;SDS011;6720;51.958;4.540;2023-08-08T11:04:20;4.07;;;1.90;;
13303;SDS011;6720;51.958;4.540;2023-08-08T11:06:48;3.60;;;1.80;;
13303;SDS011;6720;51.958;4.540;2023-08-08T11:09:15;3.80;;;1.93;;
13303;SDS011;6720;51.958;4.540;2023-08-08T11:11:42;3.17;;;1.90;;
13303;SDS011;6720;51.958;4.540;2023-08-08T11:16:44;3.13;;;1.80;;
13303;SDS011;6720;51.958;4.540;2023-08-08T11:19:11;4.47;;;1.90;;
13303;SDS011;6720;51.958;4.540;2023-08-08T11:21:39;4.03;;;1.70;;
13303;SDS011;6720;51.958;4.540;2023-08-08T11:24:05;2.37;;;1.63;;
13303;SDS011;6720;51.958;4.540;2023-08-08T11:26:32;2.43;;;1.60;;
13303;SDS011;6720;51.958;4.540;2023-08-08T11:28:59;2.77;;;1.60;;
13303;SDS011;6720;51.958;4.540;2023-08-08T11:31:25;2.60;;;1.57;;
13303;SDS011;6720;51.958;4.540;2023-08-08T11:33:52;2.57;;;1.90;;
13303;SDS011;6720;51.958;4.540;2023-08-08T11:36:19;2.37;;;1.50;;
13303;SDS011;6720;51.958;4.540;2023-08-08T11:38:45;4.50;;;1.97;;
13303;SDS011;6720;51.958;4.540;2023-08-08T11:41:12;3.87;;;1.50;;
13303;SDS011;6720;51.958;4.540;2023-08-08T11:43:39;4.73;;;2.13;;
13303;SDS011;6720;51.958;4.540;2023-08-08T11:46:09;2.17;;;1.50;;
13303;SDS011;6720;51.958;4.540;2023-08-08T11:48:37;4.27;;;1.80;;
13303;SDS011;6720;51.958;4.540;2023-08-08T11:51:06;3.33;;;2.00;;
13303;SDS011;6720;51.958;4.540;2023-08-08T11:53:32;4.30;;;1.83;;
13303;SDS011;6720;51.958;4.540;2023-08-08T11:56:01;2.20;;;1.73;;
13303;SDS011;6720;51.958;4.540;2023-08-08T11:58:28;2.53;;;1.70;;
13303;SDS011;6720;51.958;4.540;2023-08-08T12:00:58;2.50;;;1.53;;
13303;SDS011;6720;51.958;4.540;2023-08-08T12:03:25;2.27;;;1.73;;
13303;SDS011;6720;51.958;4.540;2023-08-08T12:05:50;3.50;;;1.57;;
13303;SDS011;6720;51.958;4.540;2023-08-08T12:08:19;4.63;;;1.70;;
13303;SDS011;6720;51.958;4.540;2023-08-08T12:10:48;2.60;;;1.80;;
13303;SDS011;6720;51.958;4.540;2023-08-08T12:13:19;1.73;;;1.30;;
13303;SDS011;6720;51.958;4.540;2023-08-08T12:15:45;2.33;;;1.70;;
13303;SDS011;6720;51.958;4.540;2023-08-08T12:18:11;2.13;;;1.93;;
13303;SDS011;6720;51.958;4.540;2023-08-08T12:20:36;4.57;;;1.93;;
13303;SDS011;6720;51.958;4.540;2023-08-08T12:23:02;3.43;;;1.80;;
13303;SDS011;6720;51.958;4.540;2023-08-08T12:25:27;1.97;;;1.50;;
13303;SDS011;6720;51.958;4.540;2023-08-08T12:27:53;2.50;;;1.70;;
13303;SDS011;6720;51.958;4.540;2023-08-08T12:30:18;4.77;;;1.70;;
13303;SDS011;6720;51.958;4.540;2023-08-08T12:32:44;2.50;;;1.57;;
13303;SDS011;6720;51.958;4.540;2023-08-08T12:35:09;2.17;;;1.80;;
13303;SDS011;6720;51.958;4.540;2023-08-08T12:37:35;3.83;;;1.70;;
13303;SDS011;6720;51.958;4.540;2023-08-08T12:40:00;1.47;;;1.37;;
13303;SDS011;6720;51.958;4.540;2023-08-08T12:42:27;2.50;;;1.70;;
13303;SDS011;6720;51.958;4.540;2023-08-08T12:44:53;4.50;;;3.70;;
13303;SDS011;6720;51.958;4.540;2023-08-08T12:47:19;3.60;;;2.40;;
13303;SDS011;6720;51.958;4.540;2023-08-08T12:49:45;4.03;;;2.77;;
13303;SDS011;6720;51.958;4.540;2023-08-08T12:52:11;3.10;;;2.07;;
13303;SDS011;6720;51.958;4.540;2023-08-08T12:54:36;3.83;;;2.67;;
13303;SDS011;6720;51.958;4.540;2023-08-08T12:57:02;6.37;;;2.70;;
13303;SDS011;6720;51.958;4.540;2023-08-08T12:59:28;3.63;;;2.70;;
13303;SDS011;6720;51.958;4.540;2023-08-08T13:01:53;3.70;;;2.47;;
13303;SDS011;6720;51.958;4.540;2023-08-08T13:04:18;5.37;;;4.57;;
13303;SDS011;6720;51.958;4.540;2023-08-08T13:06:44;2.87;;;1.73;;
13303;SDS011;6720;51.958;4.540;2023-08-08T13:09:10;4.70;;;3.93;;
13303;SDS011;6720;51.958;4.540;2023-08-08T13:11:35;2.37;;;1.80;;
13303;SDS011;6720;51.958;4.540;2023-08-08T13:14:01;3.87;;;1.87;;
13303;SDS011;6720;51.958;4.540;2023-08-08T13:16:26;4.07;;;2.03;;
13303;SDS011;6720;51.958;4.540;2023-08-08T13:18:52;5.60;;;3.00;;
13303;SDS011;6720;51.958;4.540;2023-08-08T13:21:17;4.00;;;2.87;;
13303;SDS011;6720;51.958;4.540;2023-08-08T13:23:42;3.03;;;1.60;;
13303;SDS011;6720;51.958;4.540;2023-08-08T13:26:11;3.10;;;1.97;;
13303;SDS011;6720;51.958;4.540;2023-08-08T13:28:36;6.30;;;3.17;;
13303;SDS011;6720;51.958;4.540;2023-08-08T13:31:03;4.07;;;2.27;;
13303;SDS011;6720;51.958;4.540;2023-08-08T13:33:31;3.67;;;1.90;;
13303;SDS011;6720;51.958;4.540;2023-08-08T13:35:56;5.80;;;2.70;;
13303;SDS011;6720;51.958;4.540;2023-08-08T13:38:22;3.83;;;2.70;;
13303;SDS011;6720;51.958;4.540;2023-08-08T13:40:48;4.90;;;2.73;;
13303;SDS011;6720;51.958;4.540;2023-08-08T13:43:14;3.10;;;1.90;;
13303;SDS011;6720;51.958;4.540;2023-08-08T13:45:39;5.07;;;3.03;;
13303;SDS011;6720;51.958;4.540;2023-08-08T13:48:05;2.53;;;1.90;;
13303;SDS011;6720;51.958;4.540;2023-08-08T13:50:30;2.43;;;1.70;;
13303;SDS011;6720;51.958;4.540;2023-08-08T13:52:56;3.53;;;2.10;;
13303;SDS011;6720;51.958;4.540;2023-08-08T13:55:21;2.33;;;2.00;;
13303;SDS011;6720;51.958;4.540;2023-08-08T13:57:47;3.23;;;2.33;;
13303;SDS011;6720;51.958;4.540;2023-08-08T14:00:12;5.10;;;2.57;;
13303;SDS011;6720;51.958;4.540;2023-08-08T14:02:39;3.40;;;2.00;;
13303;SDS011;6720;51.958;4.540;2023-08-08T14:05:05;5.53;;;2.80;;
13303;SDS011;6720;51.958;4.540;2023-08-08T14:07:32;8.53;;;5.20;;
13303;SDS011;6720;51.958;4.540;2023-08-08T14:09:58;9.27;;;5.33;;
13303;SDS011;6720;51.958;4.540;2023-08-08T14:12:24;3.50;;;1.93;;
13303;SDS011;6720;51.958;4.540;2023-08-08T14:14:50;5.23;;;3.27;;
13303;SDS011;6720;51.958;4.540;2023-08-08T14:17:15;3.80;;;2.53;;
13303;SDS011;6720;51.958;4.540;2023-08-08T14:19:41;4.27;;;3.13;;
13303;SDS011;6720;51.958;4.540;2023-08-08T14:22:06;6.90;;;3.20;;
13303;SDS011;6720;51.958;4.540;2023-08-08T14:24:31;5.60;;;2.30;;
13303;SDS011;6720;51.958;4.540;2023-08-08T14:26:57;4.07;;;2.80;;
13303;SDS011;6720;51.958;4.540;2023-08-08T14:29:22;4.43;;;2.77;;
13303;SDS011;6720;51.958;4.540;2023-08-08T14:31:48;5.80;;;3.00;;
13303;SDS011;6720;51.958;4.540;2023-08-08T14:34:14;4.27;;;2.20;;
13303;SDS011;6720;51.958;4.540;2023-08-08T14:36:40;5.30;;;2.90;;
13303;SDS011;6720;51.958;4.540;2023-08-08T14:39:06;9.07;;;4.13;;
13303;SDS011;6720;51.958;4.540;2023-08-08T14:41:32;4.60;;;2.20;;
13303;SDS011;6720;51.958;4.540;2023-08-08T14:43:58;7.37;;;4.73;;
13303;SDS011;6720;51.958;4.540;2023-08-08T14:46:23;5.13;;;3.80;;
13303;SDS011;6720;51.958;4.540;2023-08-08T14:48:49;3.70;;;2.17;;
13303;SDS011;6720;51.958;4.540;2023-08-08T14:51:14;4.87;;;2.73;;
13303;SDS011;6720;51.958;4.540;2023-08-08T14:53:42;6.27;;;3.07;;
13303;SDS011;6720;51.958;4.540;2023-08-08T14:56:08;4.27;;;2.00;;
13303;SDS011;6720;51.958;4.540;2023-08-08T14:58:34;4.97;;;3.10;;
13303;SDS011;6720;51.958;4.540;2023-08-08T15:01:00;5.17;;;2.87;;
13303;SDS011;6720;51.958;4.540;2023-08-08T15:03:26;4.50;;;3.07;;